• Join FlightAware (Why Join?)
  • Login
  • US Flag 
02:11AM EDT


 

Airport Tracker/Info


-or-


 

Live Flight TrackerFlight Track Log ✈ VRD26 ✈ 05-Jul-2013 ✈ KSFO - KJFK

Flight Track Log - Related Links

Times and Time Zones

All times are in EDT time to prevent confusion due to time zone crossing. See the VRD26 flight status page for this flight to view local times or setup timezone preferences in your user account.

Time Position Orientation Groundspeed Altitude Reporting Facility
EDT Latitude Longitude Course Direction KTS MPH feet Rate Location/Type
06:46PM 37.6170 -122.3780 95° East 27 31  Level FlightAware
06:46PM 37.6170 -122.3760 90° East 32 37  Level FlightAware
06:47PM 37.6160 -122.3750 142° Southeast 15 17  Level FlightAware
06:47PM 37.6160 -122.3730 90° East 16 18  Level FlightAware
06:47PM 37.6160 -122.3720 90° East 15 17  Level FlightAware
06:48PM 37.6150 -122.3700 122° Southeast 15 17  Level FlightAware
06:48PM 37.6140 -122.3680 122° Southeast 15 17  Level FlightAware
06:49PM 37.6130 -122.3660 122° Southeast 32 37  Level FlightAware
06:49PM 37.6120 -122.3650 142° Southeast 30 35  Level FlightAware
06:49PM 37.6120 -122.3630 90° East 32 37 60 Level FlightAware
06:50PM 37.6100 -122.3600 131° Southeast 19 22 60 Level FlightAware
06:51PM 37.6110 -122.3590 38° Northeast 16 18 60 Level FlightAware
06:52PM 37.6120 -122.3580 38° Northeast 15 17 60 Level FlightAware
06:53PM 37.6140 -122.3570 22° Northeast 12 14 120 Level FlightAware
06:54PM 37.6140 -122.3590 270° West 45 52 240 Level FlightAware
06:54PM 37.6220 -122.3770 299° West 157 181 300 1,200 Climbing FlightAware ADS-B
06:54PM 37.6270 -122.3890 298° West 151 174 900 2,460 Climbing FlightAware ADS-B
06:54PM 37.6282 -122.3910 307° West 151 174 1,000 2,220 Climbing FlightAware ADS-B
06:54PM 37.6305 -122.3940 314° West 152 175 1,200 2,460 Climbing FlightAware ADS-B
06:54PM 37.6353 -122.3970 334° Northwest 156 180 1,500 2,160 Climbing FlightAware ADS-B
06:55PM 37.6380 -122.3970 360° North 162 186 1,600 1,680 Climbing FlightAware ADS-B
06:55PM 37.6409 -122.3970 360° North 172 198 1,700 1,680 Climbing FlightAware ADS-B
06:55PM 37.6439 -122.3970 360° North 181 208 1,800 900 Climbing FlightAware ADS-B
06:55PM 37.6555 -122.3880 32° Northeast 185 213 2,000 960 Climbing FlightAware ADS-B
06:55PM 37.6614 -122.3780 53° Northeast 216 249 2,200 1,260 Climbing FlightAware ADS-B
06:55PM 37.6751 -122.3520 56° Northeast 245 282 2,700 1,380 Climbing FlightAware ADS-B
06:56PM 37.6848 -122.3330 57° Northeast 260 299 3,100 1,920 Climbing FlightAware ADS-B
06:56PM 37.6958 -122.3120 56° Northeast 271 312 3,700 2,220 Climbing FlightAware ADS-B
06:56PM 37.7071 -122.2910 56° Northeast 276 318 4,300 2,280 Climbing FlightAware ADS-B
06:57PM 37.7305 -122.2470 56° Northeast 282 325 5,600 2,340 Climbing FlightAware ADS-B
06:57PM 37.7444 -122.2210 56° Northeast 286 329 6,300 2,160 Climbing FlightAware ADS-B
06:57PM 37.7544 -122.2080 46° Northeast 289 333 6,700 1,980 Climbing FlightAware ADS-B
06:58PM 37.7711 -122.1910 39° Northeast 294 338 7,200 1,920 Climbing FlightAware ADS-B
06:58PM 37.7922 -122.1710 37° Northeast 298 343 7,800 2,040 Climbing FlightAware ADS-B
06:58PM 37.8097 -122.1550 36° Northeast 302 348 8,400 2,220 Climbing FlightAware ADS-B
06:58PM 37.8270 -122.1390 36° Northeast 303 349 9,000 2,220 Climbing FlightAware ADS-B
06:59PM 37.8452 -122.1220 36° Northeast 305 351 9,600 1,920 Climbing FlightAware ADS-B
06:59PM 37.8802 -122.0890 37° Northeast 314 361 10,500 1,380 Climbing FlightAware ADS-B
07:00PM 37.9166 -122.0550 36° Northeast 341 392 11,000 840 Climbing FlightAware ADS-B
07:00PM 37.9571 -122.0160 37° Northeast 367 422 11,400 1,260 Climbing FlightAware ADS-B
07:01PM 37.9994 -121.9750 37° Northeast 378 435 12,300 1,980 Climbing FlightAware ADS-B
07:01PM 38.0640 -121.9140 37° Northeast 376 433 14,000 1,860 Climbing FlightAware
07:02PM 38.1200 -121.8610 37° Northeast 389 448 15,000 1,620 Climbing FlightAware
07:03PM 38.1790 -121.8050 37° Northeast 391 450 16,200 1,800 Climbing FlightAware
07:03PM 38.2310 -121.7550 37° Northeast 395 455 17,300 1,560 Climbing FlightAware
07:04PM 38.2930 -121.6960 37° Northeast 403 464 18,300 1,440 Climbing FlightAware
07:05PM 38.3600 -121.6320 37° Northeast 410 472 19,400 1,620 Climbing FlightAware
07:05PM 38.4100 -121.5830 38° Northeast 414 476 20,400 1,680 Climbing FlightAware ADS-B
07:06PM 38.4336 -121.5560 42° Northeast 414 476 20,800 1,500 Climbing FlightAware ADS-B
07:06PM 38.4572 -121.5240 47° Northeast 416 479 21,300 1,500 Climbing FlightAware ADS-B
07:07PM 38.4992 -121.4570 51° Northeast 422 486 22,100 1,140 Climbing FlightAware ADS-B
07:07PM 38.5368 -121.3920 54° Northeast 431 496 22,600 1,140 Climbing FlightAware ADS-B
07:08PM 38.5738 -121.3290 53° Northeast 435 501 23,300 1,260 Climbing FlightAware ADS-B
07:08PM 38.6129 -121.2620 53° Northeast 438 504 24,000 1,140 Climbing FlightAware ADS-B
07:09PM 38.6501 -121.1980 53° Northeast 445 512 24,500 1,080 Climbing FlightAware ADS-B
07:09PM 38.6874 -121.1330 54° Northeast 449 517 25,100 1,020 Climbing FlightAware ADS-B
07:10PM 38.7265 -121.0660 53° Northeast 456 525 25,600 1,020 Climbing FlightAware ADS-B
07:10PM 38.7650 -121.0000 53° Northeast 457 526 26,200 1,080 Climbing FlightAware
07:11PM 38.8280 -120.8890 54° Northeast 463 533 27,100 960 Climbing FlightAware
07:12PM 38.8850 -120.7900 53° Northeast 464 534 27,800 840 Climbing FlightAware
07:12PM 38.9390 -120.6970 53° Northeast 471 542 28,300 900 Climbing FlightAware
07:13PM 38.9970 -120.5970 53° Northeast 473 544 29,100 960 Climbing FlightAware
07:14PM 39.0530 -120.5000 53° Northeast 477 549 29,700 900 Climbing FlightAware
07:15PM 39.1050 -120.4090 54° Northeast 478 550 30,400 1,020 Climbing FlightAware
07:15PM 39.1530 -120.3250 54° Northeast 478 550 31,000 1,080 Climbing FlightAware
07:16PM 39.2030 -120.2380 53° Northeast 477 549 31,800 900 Climbing FlightAware
07:17PM 39.2650 -120.1290 54° Northeast 480 552 32,300 780 Climbing FlightAware
07:17PM 39.3120 -120.0460 54° Northeast 478 550 32,900 780 Climbing FlightAware
07:18PM 39.3600 -119.9610 54° Northeast 481 554 33,300 540 Climbing FlightAware
07:19PM 39.4050 -119.8810 54° Northeast 488 562 33,700 660 Climbing FlightAware
07:19PM 39.4830 -119.7420 54° Northeast 490 564 34,300 660 Climbing FlightAware
07:20PM 39.5360 -119.6480 54° Northeast 489 563 34,700 480 Climbing FlightAware
07:21PM 39.5860 -119.5580 54° Northeast 492 566 35,000 180 Climbing FlightAware
07:21PM 39.6490 -119.4450 54° Northeast 486 559 35,000  Level FlightAware
07:22PM 39.6970 -119.3600 54° Northeast 485 558 35,000  Level FlightAware
07:23PM 39.7440 -119.2750 54° Northeast 485 558 35,000  Level FlightAware
07:23PM 39.8020 -119.1690 55° Northeast 486 559 35,000  Level FlightAware
07:24PM 39.8550 -119.0720 55° Northeast 485 558 35,000  Level FlightAware
07:25PM 39.9030 -118.9870 54° Northeast 487 560 35,000  Level FlightAware
07:25PM 39.9600 -118.8820 55° Northeast 489 563 35,000  Level FlightAware
07:26PM 40.0130 -118.7850 54° Northeast 491 565 35,000  Level FlightAware
07:27PM 40.0700 -118.6800 55° Northeast 493 567 35,000  Level FlightAware
07:27PM 40.1180 -118.5780 58° Northeast 490 564 35,000 60 Level FlightAware
07:28PM 40.1570 -118.4620 66° East 488 562 35,100  Climbing FlightAware
07:29PM 40.1880 -118.3480 70° East 485 558 35,000 -120 Descending FlightAware
07:29PM 40.2150 -118.2530 70° East 487 560 35,000  Level FlightAware
07:30PM 40.2520 -118.1160 70° East 488 562 35,000  Level FlightAware
07:31PM 40.2780 -118.0190 71° East 485 558 35,000  Level FlightAware
07:32PM 40.3130 -117.8910 70° East 483 556 35,000  Level FlightAware
07:33PM 40.3550 -117.7350 70° East 482 555 35,000  Level FlightAware
07:33PM 40.3790 -117.6510 69° East 482 555 35,000  Level FlightAware
07:34PM 40.4020 -117.5670 70° East 482 555 35,000  Level FlightAware
07:35PM 40.4330 -117.4540 70° East 482 555 35,000  Level FlightAware
07:35PM 40.4570 -117.3700 69° East 482 555 35,000  Level FlightAware
07:36PM 40.4860 -117.2620 71° East 482 555 35,000  Level FlightAware
07:37PM 40.5100 -117.1780 69° East 482 555 35,000  Level FlightAware
07:37PM 40.5410 -117.0630 70° East 482 555 35,000  Level FlightAware
07:38PM 40.5650 -116.9790 69° East 482 555 35,000  Level FlightAware
07:39PM 40.5890 -116.8920 70° East 482 555 35,000  Level FlightAware
07:40PM 40.6280 -116.7510 70° East 482 555 35,000  Level FlightAware
07:40PM 40.6590 -116.6390 70° East 482 555 35,000  Level FlightAware
07:41PM 40.6820 -116.5540 70° East 482 555 35,000  Level FlightAware
07:42PM 40.7130 -116.4410 70° East 482 555 35,000  Level FlightAware
07:44PM 41.1017 -115.8510 49° Northeast 500 575 35,000  Level FlightAware ADS-B
07:45PM 41.1736 -115.7040 57° Northeast 499 574 35,000  Level FlightAware ADS-B
07:46PM 41.2340 -115.5760 58° Northeast 501 577 35,000  Level FlightAware
07:46PM 41.2430 -115.5570 58° Northeast 500 575 35,000  Level FlightAware ADS-B
07:47PM 41.2880 -115.4620 58° Northeast 502 578 35,000  Level FlightAware
07:47PM 41.2984 -115.4370 61° Northeast 503 579 35,000  Level FlightAware ADS-B
07:47PM 41.3119 -115.4000 64° Northeast 501 577 35,000  Level FlightAware ADS-B
07:48PM 41.3628 -115.2440 66° East 495 570 35,000  Level FlightAware ADS-B
07:48PM 41.3780 -115.1950 68° East 495 570 35,000  Level FlightAware ADS-B
07:49PM 41.3849 -115.1600 75° East 492 566 35,000 120 Level FlightAware ADS-B
07:49PM 41.3952 -115.0680 81° East 485 558 35,100 120 Climbing FlightAware ADS-B
07:49PM 41.4003 -115.0190 82° East 479 551 35,100  Level FlightAware ADS-B
07:50PM 41.4020 -114.9840 86° East 474 545 35,100 -300 Level FlightAware ADS-B
07:50PM 41.4017 -114.9520 91° East 470 541 35,000 -180 Descending FlightAware ADS-B
07:50PM 41.3984 -114.8640 93° East 466 536 35,000  Level FlightAware ADS-B
07:51PM 41.3956 -114.7700 92° East 462 532 35,000  Level FlightAware ADS-B
07:52PM 41.3921 -114.6530 92° East 460 529 35,000  Level FlightAware ADS-B
07:53PM 41.3857 -114.4610 92° East 455 524 35,000  Level FlightAware ADS-B
07:53PM 41.3828 -114.3760 93° East 454 522 35,000  Level FlightAware ADS-B
07:54PM 41.3799 -114.2920 93° East 455 524 35,000  Level FlightAware ADS-B
07:54PM 41.3768 -114.2090 93° East 453 521 35,000  Level FlightAware ADS-B
07:55PM 41.3738 -114.1250 93° East 455 524 35,000  Level FlightAware ADS-B
07:55PM 41.3706 -114.0410 93° East 455 524 35,000  Level FlightAware ADS-B
07:56PM 41.3675 -113.9570 93° East 455 524 35,000  Level FlightAware ADS-B
07:56PM 41.3656 -113.9050 93° East 456 525 35,000  Level FlightAware ADS-B
07:56PM 41.3660 -113.8510 89° East 460 529 35,000  Level FlightAware ADS-B
07:57PM 41.3693 -113.7970 85° East 464 534 35,000 120 Level FlightAware ADS-B
07:57PM 41.3797 -113.7120 81° East 464 534 35,100 60 Climbing FlightAware ADS-B
07:58PM 41.3912 -113.6240 80° East 463 533 35,100 -120 Level FlightAware ADS-B
07:58PM 41.4028 -113.5330 80° East 462 532 35,000 -120 Descending FlightAware ADS-B
07:59PM 41.4136 -113.4480 80° East 460 529 35,000  Level FlightAware ADS-B
07:59PM 41.4243 -113.3630 80° East 461 531 35,000  Level FlightAware ADS-B
08:00PM 41.4387 -113.2480 80° East 464 534 35,000  Level FlightAware ADS-B
08:00PM 41.4494 -113.1620 81° East 465 535 35,000 60 Level FlightAware ADS-B
08:01PM 41.4605 -113.0790 80° East 467 537 35,100 120 Climbing FlightAware ADS-B
08:01PM 41.4666 -113.0510 74° East 470 541 35,100 -120 Level FlightAware ADS-B
08:02PM 41.5009 -112.9290 69° East 472 543 35,000 -60 Descending FlightAware ADS-B
08:03PM 41.5467 -112.7670 69° East 483 556 35,000  Level FlightAware ADS-B
08:03PM 41.5734 -112.6680 70° East 484 557 35,000  Level FlightAware ADS-B
08:04PM 41.5964 -112.5790 71° East 490 564 35,000  Level FlightAware ADS-B
08:05PM 41.6209 -112.4820 71° East 492 566 35,000 60 Level FlightAware ADS-B
08:05PM 41.6431 -112.3910 72° East 495 570 35,100 60 Climbing FlightAware ADS-B
08:05PM 41.6515 -112.3260 80° East 493 567 35,100  Level FlightAware ADS-B
08:06PM 41.6602 -112.2260 83° East 493 567 35,100 -120 Level FlightAware ADS-B
08:07PM 41.6735 -112.0780 83° East 498 573 35,000  Descending FlightAware ADS-B
08:07PM 41.6839 -111.9600 83° East 498 573 35,100  Climbing FlightAware ADS-B
08:08PM 41.6921 -111.8670 83° East 496 571 35,000 -120 Descending FlightAware ADS-B
08:09PM 41.7070 -111.6980 83° East 495 570 35,000  Level FlightAware
08:09PM 41.7149 -111.6000 84° East 494 568 35,000  Level FlightAware ADS-B
08:10PM 41.7232 -111.5010 84° East 494 568 35,000  Level FlightAware ADS-B
08:11PM 41.7320 -111.3960 84° East 496 571 35,000  Level FlightAware ADS-B
08:11PM 41.7395 -111.3040 84° East 498 573 35,000  Level FlightAware ADS-B
08:12PM 41.7471 -111.2110 84° East 499 574 35,000  Level FlightAware ADS-B
08:12PM 41.7545 -111.1190 84° East 500 575 35,000  Level FlightAware ADS-B
08:13PM 41.7623 -111.0210 84° East 502 578 35,000  Level FlightAware ADS-B
08:13PM 41.7697 -110.9270 84° East 503 579 35,000  Level FlightAware ADS-B
08:14PM 41.7770 -110.8320 84° East 504 580 35,000  Level FlightAware ADS-B
08:15PM 41.7936 -110.6144 84° East 503 579 35,000  Level Salt Lake Center
08:20PM 41.8690 -109.5570 84° East 498 573 35,000  Level FlightAware
08:21PM 41.8770 -109.4320 85° East 494 568 35,000  Level FlightAware
08:22PM 41.8860 -109.2910 85° East 492 566 35,000  Level FlightAware
08:22PM 41.8920 -109.1960 85° East 493 567 35,000  Level FlightAware
08:23PM 41.9000 -109.0640 85° East 492 566 35,000  Level FlightAware
08:24PM 41.9080 -108.9410 85° East 493 567 35,000  Level FlightAware
08:24PM 41.9140 -108.8340 86° East 493 567 35,000  Level FlightAware
08:25PM 41.9220 -108.7090 85° East 493 567 35,000  Level FlightAware
08:26PM 41.9300 -108.5740 85° East 493 567 35,000  Level FlightAware
08:27PM 41.9370 -108.4410 86° East 492 566 35,000  Level FlightAware
08:27PM 41.9460 -108.2780 86° East 492 566 35,000  Level FlightAware
08:28PM 41.9530 -108.1610 85° East 493 567 35,000  Level FlightAware
08:29PM 41.9600 -108.0340 86° East 494 568 35,000  Level FlightAware
08:29PM 41.9660 -107.9400 85° East 494 568 35,000  Level FlightAware
08:30PM 41.9720 -107.8460 85° East 494 568 35,000  Level FlightAware
08:31PM 41.9790 -107.7530 84° East 494 568 35,000  Level FlightAware
08:31PM 41.9870 -107.6280 85° East 494 568 35,000  Level FlightAware
08:32PM 41.9930 -107.5340 85° East 494 568 35,000  Level FlightAware
08:33PM 42.0010 -107.4090 85° East 494 568 35,000  Level FlightAware
08:33PM 42.0070 -107.3150 85° East 494 568 35,000  Level FlightAware
08:34PM 42.0150 -107.1900 85° East 494 568 35,000  Level FlightAware
08:35PM 42.0210 -107.0960 85° East 494 568 35,000  Level FlightAware
08:36PM 42.0290 -106.9770 85° East 494 568 35,000  Level FlightAware
08:36PM 42.0350 -106.8850 85° East 494 568 35,000 60 Level FlightAware
08:37PM 42.0280 -106.5740 92° East 485 558 35,100  Climbing FlightAware
08:38PM 42.0320 -106.4470 88° East 482 555 35,000 -120 Descending FlightAware
08:38PM 42.0380 -106.2850 87° East 480 552 35,000  Level FlightAware
08:39PM 42.0430 -106.1680 87° East 479 551 35,000  Level FlightAware
08:40PM 42.0540 -106.0080 85° East 479 551 35,000  Level FlightAware
08:41PM 42.0720 -105.8800 79° East 479 551 35,000  Level FlightAware
08:41PM 42.0890 -105.7580 79° East 478 550 35,000  Level FlightAware
08:42PM 42.1040 -105.6450 80° East 482 555 35,000  Level FlightAware
08:43PM 42.1210 -105.5130 80° East 485 558 35,000 60 Level FlightAware
08:43PM 42.1350 -105.4060 80° East 485 558 35,100  Climbing FlightAware
08:44PM 42.1527 -105.2700 80° East 484 557 35,000 -120 Descending FlightAware ADS-B
08:45PM 42.1655 -105.1740 80° East 484 557 35,000 60 Level FlightAware ADS-B
08:45PM 42.1780 -105.0830 79° East 483 556 35,100  Climbing FlightAware ADS-B
08:46PM 42.1910 -104.9920 79° East 483 556 35,000 -120 Descending FlightAware ADS-B
08:46PM 42.2033 -104.9070 79° East 483 556 35,000  Level FlightAware ADS-B
08:47PM 42.2169 -104.8120 79° East 484 557 35,000  Level FlightAware ADS-B
08:47PM 42.2298 -104.7220 79° East 482 555 35,000  Level FlightAware ADS-B
08:48PM 42.2428 -104.6340 79° East 481 554 35,000  Level FlightAware ADS-B
08:48PM 42.2584 -104.5290 79° East 479 551 35,000  Level FlightAware ADS-B
08:49PM 42.2715 -104.4400 79° East 477 549 35,000  Level FlightAware ADS-B
08:49PM 42.2846 -104.3520 79° East 478 550 35,000  Level FlightAware ADS-B
08:50PM 42.2972 -104.2640 79° East 478 550 35,000  Level FlightAware ADS-B
08:50PM 42.3097 -104.1760 79° East 479 551 35,000  Level FlightAware ADS-B
08:51PM 42.3223 -104.0870 79° East 482 555 35,000  Level FlightAware ADS-B
08:51PM 42.3348 -103.9960 79° East 484 557 35,000  Level FlightAware ADS-B
08:52PM 42.3470 -103.9070 79° East 485 558 35,000  Level FlightAware ADS-B
08:52PM 42.3599 -103.8150 79° East 487 560 35,000  Level FlightAware ADS-B
08:53PM 42.3723 -103.7280 79° East 491 565 35,000  Level FlightAware ADS-B
08:53PM 42.3849 -103.6330 80° East 492 566 35,000  Level FlightAware ADS-B
08:54PM 42.3931 -103.5420 83° East 494 568 35,000  Level FlightAware ADS-B
08:54PM 42.4007 -103.4470 84° East 494 568 35,000  Level FlightAware ADS-B
08:55PM 42.4085 -103.3510 84° East 495 570 35,000  Level FlightAware ADS-B
08:55PM 42.4149 -103.2610 84° East 493 567 35,000  Level FlightAware ADS-B
08:56PM 42.4209 -103.1630 85° East 491 565 35,000  Level FlightAware ADS-B
08:56PM 42.4262 -103.0710 86° East 490 564 35,000  Level FlightAware ADS-B
08:57PM 42.4317 -102.9770 85° East 489 563 35,000  Level FlightAware ADS-B
08:57PM 42.4370 -102.8850 86° East 487 560 35,000  Level FlightAware ADS-B
08:58PM 42.4427 -102.7860 86° East 485 558 35,000  Level FlightAware ADS-B
08:59PM 42.4488 -102.6780 86° East 483 556 35,000  Level FlightAware ADS-B
09:00PM 42.4578 -102.5292 86° East 480 552 35,000  Level Denver Center
09:01PM 42.4675 -102.3267 86° East 483 556 35,000  Level Denver Center
09:02PM 42.4769 -102.1531 86° East 484 557 35,000  Level Denver Center
09:03PM 42.4878 -101.9492 86° East 486 559 35,000  Level Denver Center
09:04PM 42.4964 -101.7664 86° East 488 562 35,000  Level Denver Center
09:05PM 42.5039 -101.5908 87° East 489 563 35,100  Climbing Denver Center
09:06PM 42.5122 -101.4161 86° East 486 559 35,100 -60 Level Denver Center
09:07PM 42.5208 -101.2133 87° East 483 556 35,000 -60 Descending Denver Center
09:08PM 42.5281 -101.0406 87° East 480 552 35,000  Level Denver Center
09:09PM 42.5364 -100.8422 87° East 472 543 35,000  Level Denver Center
09:10PM 42.5431 -100.6711 87° East 474 545 35,000  Level Denver Center
09:16PM 42.5807 -99.5702 87° East 474 545 35,000  Level FlightAware ADS-B
09:16PM 42.5834 -99.4758 88° East 474 545 35,000  Level FlightAware ADS-B
09:17PM 42.5858 -99.3891 88° East 474 545 35,000  Level FlightAware ADS-B
09:17PM 42.5884 -99.2944 88° East 473 544 35,000  Level FlightAware ADS-B
09:18PM 42.5899 -99.2373 88° East 472 543 35,000  Level FlightAware ADS-B
09:18PM 42.5922 -99.1471 88° East 472 543 35,000  Level FlightAware ADS-B
09:19PM 42.5944 -99.0576 88° East 472 543 35,000  Level FlightAware ADS-B
09:20PM 42.5981 -98.8985 88° East 471 542 35,000  Level FlightAware ADS-B
09:20PM 42.6001 -98.8066 88° East 471 542 35,000 60 Level FlightAware ADS-B
09:21PM 42.6021 -98.7172 88° East 479 551 35,100 360 Climbing FlightAware ADS-B
09:21PM 42.6040 -98.6256 88° East 480 552 35,400 660 Climbing FlightAware ADS-B
09:22PM 42.6059 -98.5345 88° East 481 554 35,800 780 Climbing FlightAware ADS-B
09:22PM 42.6077 -98.4429 88° East 480 552 36,200 840 Climbing FlightAware ADS-B
09:23PM 42.6094 -98.3480 89° East 479 551 36,700 720 Climbing FlightAware ADS-B
09:23PM 42.6111 -98.2518 89° East 478 550 37,000 240 Climbing FlightAware ADS-B
09:24PM 42.6126 -98.1623 89° East 473 544 37,000  Level FlightAware ADS-B
09:24PM 42.6140 -98.0732 89° East 469 540 37,000  Level FlightAware ADS-B
09:25PM 42.6154 -97.9843 89° East 468 539 37,000  Level FlightAware ADS-B
09:25PM 42.6168 -97.8960 89° East 468 539 37,000  Level FlightAware ADS-B
09:26PM 42.6183 -97.7798 89° East 468 539 37,000  Level FlightAware ADS-B
09:26PM 42.6195 -97.6904 89° East 469 540 37,000  Level FlightAware ADS-B
09:27PM 42.6206 -97.6006 89° East 471 542 37,000  Level FlightAware ADS-B
09:27PM 42.6216 -97.5106 89° East 471 542 37,000  Level FlightAware ADS-B
09:28PM 42.6225 -97.4184 89° East 470 541 37,000  Level FlightAware ADS-B
09:28PM 42.6234 -97.3298 89° East 469 540 37,000 60 Level FlightAware ADS-B
09:29PM 42.6243 -97.2324 89° East 467 537 37,100  Climbing FlightAware ADS-B
09:30PM 42.6250 -97.1448 89° East 465 535 37,000 -120 Descending FlightAware ADS-B
09:30PM 42.6256 -97.0557 89° East 463 533 37,000  Level FlightAware ADS-B
09:31PM 42.6261 -96.9687 90° East 462 532 37,000  Level FlightAware ADS-B
09:31PM 42.6268 -96.8504 89° East 461 531 37,000  Level FlightAware ADS-B
09:32PM 42.6273 -96.7224 90° East 461 531 37,000  Level FlightAware ADS-B
09:32PM 42.6276 -96.6355 90° East 462 532 37,000  Level FlightAware ADS-B
09:33PM 42.6279 -96.5224 90° East 463 533 37,000  Level FlightAware ADS-B
09:34PM 42.6281 -96.3998 90° East 463 533 37,000  Level FlightAware ADS-B
09:34PM 42.6283 -96.3113 90° East 463 533 37,000  Level FlightAware ADS-B
09:35PM 42.6283 -96.2211 90° East 463 533 37,000  Level FlightAware ADS-B
09:35PM 42.6282 -96.1338 90° East 464 534 37,000  Level FlightAware ADS-B
09:36PM 42.6280 -96.0463 90° East 465 535 37,000  Level FlightAware ADS-B
09:36PM 42.6278 -95.9560 90° East 466 536 37,000  Level FlightAware ADS-B
09:37PM 42.6275 -95.8678 90° East 465 535 37,000  Level FlightAware ADS-B
09:37PM 42.6271 -95.7785 90° East 464 534 37,000  Level FlightAware ADS-B
09:38PM 42.6268 -95.6911 90° East 464 534 37,000  Level FlightAware ADS-B
09:38PM 42.6263 -95.6024 90° East 464 534 37,000  Level FlightAware ADS-B
09:39PM 42.6257 -95.5114 90° East 464 534 37,000  Level FlightAware ADS-B
09:39PM 42.6251 -95.4204 90° East 464 534 37,000  Level FlightAware ADS-B
09:40PM 42.6244 -95.3332 91° East 463 533 37,000  Level FlightAware ADS-B
09:40PM 42.6237 -95.2453 91° East 463 533 37,000 60 Level FlightAware ADS-B
09:41PM 42.6228 -95.1584 91° East 461 531 37,100  Climbing FlightAware ADS-B
09:41PM 42.6219 -95.0735 91° East 459 528 37,000 -120 Descending FlightAware ADS-B
09:42PM 42.6210 -94.9838 91° East 457 526 37,000  Level FlightAware ADS-B
09:42PM 42.6200 -94.8965 91° East 457 526 37,000  Level FlightAware ADS-B
09:43PM 42.6189 -94.8094 91° East 457 526 37,000  Level FlightAware ADS-B
09:44PM 42.6177 -94.7221 91° East 457 526 37,000  Level FlightAware ADS-B
09:44PM 42.6165 -94.6348 91° East 457 526 37,000  Level FlightAware ADS-B
09:45PM 42.6152 -94.5466 91° East 456 525 37,000  Level FlightAware ADS-B
09:45PM 42.6139 -94.4604 91° East 454 522 37,000  Level FlightAware ADS-B
09:46PM 42.6125 -94.3751 91° East 452 520 37,000  Level FlightAware ADS-B
09:46PM 42.6111 -94.2888 91° East 452 520 37,000  Level FlightAware ADS-B
09:47PM 42.6111 -94.1980 90° East 450 518 37,000  Level FlightAware ADS-B
09:47PM 42.6124 -94.1128 89° East 449 517 37,000  Level FlightAware ADS-B
09:48PM 42.6135 -94.0251 89° East 450 518 37,000  Level FlightAware ADS-B
09:48PM 42.6142 -93.9359 89° East 452 520 37,000  Level FlightAware ADS-B
09:49PM 42.6147 -93.8483 90° East 453 521 37,000  Level FlightAware ADS-B
09:49PM 42.6151 -93.7589 90° East 453 521 37,000  Level FlightAware ADS-B
09:50PM 42.6155 -93.6707 90° East 452 520 37,000  Level FlightAware ADS-B
09:50PM 42.6160 -93.5610 90° East 450 518 37,000  Level FlightAware
09:51PM 42.6160 -93.4470 90° East 450 518 37,000  Level FlightAware
09:52PM 42.6170 -93.3470 89° East 449 517 37,000  Level FlightAware
09:53PM 42.6170 -93.1840 90° East 450 518 37,000  Level FlightAware
09:53PM 42.6170 -93.0790 90° East 449 517 37,000  Level FlightAware
09:54PM 42.6170 -92.9590 90° East 448 516 37,000  Level FlightAware
09:55PM 42.6160 -92.8340 91° East 448 516 37,000  Level FlightAware
09:55PM 42.6160 -92.7140 90° East 449 517 37,000  Level FlightAware
09:56PM 42.6150 -92.6110 91° East 449 517 37,000 60 Level FlightAware
09:57PM 42.6150 -92.4980 90° East 446 513 37,100  Climbing FlightAware
09:57PM 42.6140 -92.3760 91° East 444 511 37,000 -120 Descending FlightAware
09:58PM 42.6130 -92.2730 91° East 442 509 37,000  Level FlightAware
09:59PM 42.6120 -92.1510 91° East 440 506 37,000  Level FlightAware
09:59PM 42.6110 -92.0330 91° East 438 504 37,000  Level FlightAware
10:00PM 42.6100 -91.9550 91° East 438 504 37,000  Level FlightAware
10:01PM 42.6090 -91.8050 90° East 441 507 37,000  Level FlightAware
10:02PM 42.6070 -91.6790 91° East 444 511 37,000  Level FlightAware
10:02PM 42.6050 -91.5710 91° East 446 513 37,000 60 Level FlightAware
10:03PM 42.6040 -91.4580 91° East 446 513 37,100 60 Climbing FlightAware
10:04PM 42.6020 -91.3200 91° East 445 512 37,100 -120 Level FlightAware
10:04PM 42.6000 -91.2070 91° East 444 511 37,000 -120 Descending FlightAware
10:05PM 42.5980 -91.0790 91° East 444 511 37,000  Level FlightAware
10:06PM 42.5960 -90.9780 92° East 445 512 37,000  Level FlightAware
10:06PM 42.5940 -90.8730 91° East 446 513 37,000  Level FlightAware
10:07PM 42.5910 -90.7610 92° East 446 513 37,000 60 Level FlightAware
10:08PM 42.5890 -90.6490 91° East 445 512 37,100  Climbing FlightAware
10:08PM 42.5860 -90.5370 92° East 444 511 37,000 -120 Descending FlightAware
10:09PM 42.5840 -90.4230 91° East 441 507 37,000  Level FlightAware
10:10PM 42.5810 -90.3060 92° East 439 505 37,000  Level FlightAware
10:11PM 42.5780 -90.1930 92° East 439 505 37,000  Level FlightAware
10:11PM 42.5750 -90.0740 92° East 439 505 37,000  Level FlightAware
10:12PM 42.5720 -89.9640 92° East 441 507 37,000  Level FlightAware
10:13PM 42.5690 -89.8440 92° East 442 509 37,000  Level FlightAware
10:13PM 42.5660 -89.7510 92° East 442 509 37,000  Level FlightAware
10:14PM 42.5620 -89.6280 92° East 441 507 37,000  Level FlightAware
10:15PM 42.5580 -89.5140 93° East 441 507 37,000  Level FlightAware
10:15PM 42.5550 -89.4200 92° East 440 506 37,000  Level FlightAware
10:16PM 42.5510 -89.2970 92° East 441 507 37,000  Level FlightAware
10:17PM 42.5480 -89.1890 92° East 439 505 37,000  Level FlightAware
10:17PM 42.5440 -89.0900 93° East 437 503 37,000  Level FlightAware
10:18PM 42.5400 -88.9790 93° East 438 504 37,000  Level FlightAware
10:19PM 42.5360 -88.8630 93° East 443 510 37,000  Level FlightAware
10:19PM 42.5320 -88.7650 93° East 447 514 37,000  Level FlightAware
10:20PM 42.5280 -88.6620 93° East 451 519 37,000  Level FlightAware
10:21PM 42.5230 -88.5280 93° East 455 524 37,000  Level FlightAware
10:21PM 42.5170 -88.4010 94° East 460 529 37,000  Level FlightAware
10:22PM 42.5130 -88.2880 93° East 462 532 37,000 60 Level FlightAware
10:23PM 42.5080 -88.1660 93° East 464 534 37,100  Climbing FlightAware
10:23PM 42.5020 -88.0440 94° East 467 537 37,000 -120 Descending FlightAware
10:24PM 42.5000 -87.9240 91° East 478 550 37,000  Level FlightAware
10:25PM 42.5000 -87.8050 90° East 483 556 37,000  Level FlightAware
10:25PM 42.5000 -87.6940 90° East 489 563 37,000 60 Level FlightAware
10:26PM 42.4990 -87.5670 91° East 493 567 37,100  Climbing FlightAware
10:27PM 42.4990 -87.4410 90° East 497 572 37,000 -120 Descending FlightAware
10:27PM 42.4980 -87.3160 91° East 499 574 37,000  Level FlightAware
10:28PM 42.4970 -87.1930 91° East 500 575 37,000  Level FlightAware
10:29PM 42.4960 -87.0460 90° East 502 578 37,000 60 Level FlightAware
10:29PM 42.4950 -86.9220 91° East 500 575 37,100  Climbing FlightAware
10:30PM 42.4940 -86.7870 91° East 497 572 37,000 -120 Descending FlightAware
10:31PM 42.4930 -86.6620 91° East 494 568 37,000  Level FlightAware
10:32PM 42.4910 -86.5300 91° East 492 566 37,000  Level FlightAware
10:32PM 42.4890 -86.4040 91° East 493 567 37,000  Level FlightAware
10:33PM 42.4880 -86.2830 91° East 492 566 37,000  Level FlightAware
10:34PM 42.4860 -86.1440 91° East 494 568 37,000  Level FlightAware
10:34PM 42.4840 -86.0140 91° East 494 568 37,000  Level FlightAware
10:35PM 42.4810 -85.8930 92° East 492 566 37,000  Level FlightAware
10:36PM 42.4790 -85.7730 91° East 492 566 37,000  Level FlightAware
10:36PM 42.4760 -85.6400 92° East 492 566 37,000  Level FlightAware
10:37PM 42.4740 -85.5300 91° East 493 567 37,000  Level FlightAware
10:38PM 42.4710 -85.3920 92° East 493 567 37,000  Level FlightAware
10:38PM 42.4680 -85.2710 92° East 493 567 37,000  Level FlightAware
10:39PM 42.4650 -85.1270 92° East 494 568 37,000  Level FlightAware
10:40PM 42.4620 -85.0060 92° East 493 567 37,000  Level FlightAware
10:40PM 42.4580 -84.8960 93° East 492 566 37,000  Level FlightAware
10:41PM 42.4500 -84.7660 95° East 492 566 37,000  Level FlightAware
10:42PM 42.4430 -84.6440 94° East 494 568 37,000  Level FlightAware
10:43PM 42.4360 -84.5080 94° East 495 570 37,000  Level FlightAware
10:43PM 42.4280 -84.3740 95° East 496 571 37,000  Level FlightAware
10:44PM 42.4210 -84.2540 94° East 496 571 37,000  Level FlightAware
10:45PM 42.4140 -84.1330 94° East 496 571 37,000  Level FlightAware
10:45PM 42.4080 -84.0200 94° East 494 568 37,000  Level FlightAware
10:46PM 42.3990 -83.8870 95° East 493 567 37,000  Level FlightAware
10:46PM 42.3930 -83.7770 94° East 494 568 37,000  Level FlightAware
10:47PM 42.3840 -83.6440 95° East 494 568 37,000  Level FlightAware
10:48PM 42.3750 -83.5020 95° East 496 571 37,000  Level FlightAware
10:49PM 42.3670 -83.3780 95° East 496 571 37,000  Level FlightAware
10:49PM 42.3600 -83.2730 95° East 496 571 37,000  Level FlightAware
10:50PM 42.3500 -83.1230 95° East 496 571 37,000  Level FlightAware
10:51PM 42.3410 -82.9970 95° East 497 572 37,000  Level FlightAware
10:51PM 42.3320 -82.8730 96° East 497 572 37,000  Level FlightAware
10:52PM 42.3230 -82.7400 95° East 498 573 37,000  Level FlightAware
10:53PM 42.3130 -82.6010 96° East 498 573 37,000  Level FlightAware
10:54PM 42.3050 -82.4910 96° East 496 571 37,000  Level FlightAware
10:54PM 42.2960 -82.3710 96° East 495 570 37,000  Level FlightAware
10:55PM 42.2870 -82.2480 96° East 493 567 37,000  Level FlightAware
10:56PM 42.2770 -82.1170 96° East 491 565 37,000  Level FlightAware
10:56PM 42.2680 -82.0020 96° East 491 565 37,000  Level FlightAware
10:57PM 42.2580 -81.8880 97° East 491 565 37,000  Level FlightAware
10:58PM 42.2480 -81.7620 96° East 493 567 37,000  Level FlightAware
10:58PM 42.2380 -81.6340 96° East 494 568 37,000  Level FlightAware
10:59PM 42.2270 -81.4940 96° East 495 570 37,000  Level FlightAware
11:00PM 42.2160 -81.3660 97° East 495 570 37,000  Level FlightAware
11:00PM 42.2050 -81.2330 96° East 494 568 37,000  Level FlightAware
11:01PM 42.1960 -81.1330 97° East 494 568 37,000  Level FlightAware
11:02PM 42.1860 -81.0160 97° East 493 567 37,000  Level FlightAware
11:02PM 42.1750 -80.8900 97° East 493 567 37,000  Level FlightAware
11:03PM 42.1600 -80.7270 97° East 490 564 37,000  Level FlightAware
11:04PM 42.1500 -80.6100 97° East 488 562 37,000  Level FlightAware
11:04PM 42.1380 -80.4830 97° East 487 560 37,000  Level FlightAware
11:05PM 42.1270 -80.3610 97° East 487 560 37,000  Level FlightAware
11:06PM 42.1140 -80.2230 97° East 488 562 37,000  Level FlightAware
11:07PM 42.0990 -80.0690 97° East 488 562 37,000  Level FlightAware
11:08PM 42.0870 -79.9410 97° East 491 565 37,000  Level FlightAware
11:08PM 42.0720 -79.7880 97° East 490 564 37,000  Level FlightAware
11:09PM 42.0600 -79.6670 98° East 489 563 37,000  Level FlightAware
11:10PM 42.0490 -79.5510 97° East 489 563 37,000  Level FlightAware
11:10PM 42.0380 -79.4430 98° East 488 562 37,000  Level FlightAware
11:11PM 42.0200 -79.2650 98° East 487 560 37,000  Level FlightAware
11:12PM 42.0070 -79.1440 98° East 487 560 37,000  Level FlightAware
11:12PM 41.9940 -79.0230 98° East 488 562 37,000  Level FlightAware
11:13PM 41.9810 -78.8960 98° East 487 560 37,000  Level FlightAware
11:14PM 41.9670 -78.7640 98° East 488 562 37,000  Level FlightAware
11:15PM 41.9540 -78.6470 98° East 487 560 37,000  Level FlightAware
11:15PM 41.9420 -78.5380 98° East 487 560 37,000  Level FlightAware
11:16PM 41.9290 -78.4190 98° East 487 560 37,000  Level FlightAware
11:17PM 41.9150 -78.2900 98° East 487 560 37,000  Level FlightAware
11:17PM 41.9030 -78.1870 99° East 487 560 37,000  Level FlightAware
11:18PM 41.8880 -78.0580 99° East 489 563 37,000  Level FlightAware
11:19PM 41.8750 -77.9350 98° East 492 566 37,000 60 Level FlightAware
11:19PM 41.8520 -77.8050 103° East 488 562 37,100  Climbing FlightAware
11:20PM 41.8210 -77.6870 109° East 484 557 37,000 -120 Descending FlightAware
11:21PM 41.7910 -77.5730 109° East 485 558 37,000  Level FlightAware
11:21PM 41.7580 -77.4480 109° East 485 558 37,000  Level FlightAware
11:22PM 41.7237 -77.3186 110° East 484 557 37,000  Level FlightAware ADS-B
11:23PM 41.6950 -77.2130 110° East 482 555 37,000  Level FlightAware
11:23PM 41.6800 -77.1566 110° East 482 555 37,000  Level FlightAware ADS-B
11:24PM 41.6565 -77.0695 110° East 482 555 37,000 -540 Level FlightAware ADS-B
11:24PM 41.6346 -76.9888 110° East 481 554 36,500 -1,020 Descending FlightAware ADS-B
11:25PM 41.6104 -76.8997 110° East 482 555 36,000 -1,020 Descending FlightAware ADS-B
11:25PM 41.5875 -76.8156 110° East 478 550 35,500 -960 Descending FlightAware ADS-B
11:26PM 41.5607 -76.7175 110° East 475 547 35,000 -900 Descending FlightAware ADS-B
11:26PM 41.5380 -76.6353 110° East 476 548 34,500 -960 Descending FlightAware ADS-B
11:27PM 41.5138 -76.5478 110° East 474 545 34,000 -1,020 Descending FlightAware ADS-B
11:27PM 41.4906 -76.4634 110° East 469 540 33,500 -1,020 Descending FlightAware ADS-B
11:28PM 41.4679 -76.3812 110° East 470 541 33,000 -1,020 Descending FlightAware ADS-B
11:28PM 41.4451 -76.2996 110° East 472 543 32,500 -1,020 Descending FlightAware ADS-B
11:29PM 41.4223 -76.2180 110° East 475 547 32,000 -900 Descending FlightAware ADS-B
11:29PM 41.3985 -76.1329 110° East 474 545 31,600 -900 Descending FlightAware ADS-B
11:30PM 41.3739 -76.0454 111° Southeast 471 542 31,100 -960 Descending FlightAware ADS-B
11:30PM 41.3506 -75.9630 111° Southeast 476 548 30,600 -1,020 Descending FlightAware ADS-B
11:31PM 41.3272 -75.8807 111° Southeast 472 543 30,100 -1,020 Descending FlightAware ADS-B
11:31PM 41.3041 -75.7992 111° Southeast 465 535 29,600 -1,380 Descending FlightAware ADS-B
11:32PM 41.2809 -75.7178 111° Southeast 462 532 28,700 -1,980 Descending FlightAware ADS-B
11:32PM 41.2565 -75.6401 113° Southeast 454 522 27,600 -2,220 Descending FlightAware ADS-B
11:33PM 41.2309 -75.5636 114° Southeast 447 514 26,500 -2,280 Descending FlightAware ADS-B
11:33PM 41.2050 -75.4861 114° Southeast 442 509 25,300 -2,280 Descending FlightAware ADS-B
11:34PM 41.1799 -75.4113 114° Southeast 436 502 24,200 -2,100 Descending FlightAware ADS-B
11:34PM 41.1563 -75.3409 114° Southeast 428 493 23,200 -1,200 Descending FlightAware ADS-B
11:35PM 41.1312 -75.2666 114° Southeast 430 495 23,000 -240 Descending FlightAware ADS-B
11:35PM 41.1066 -75.1941 114° Southeast 427 491 23,000  Level FlightAware ADS-B
11:36PM 41.0821 -75.1218 114° Southeast 427 491 23,000  Level FlightAware ADS-B
11:36PM 41.0576 -75.0497 114° Southeast 427 491 23,000  Level FlightAware ADS-B
11:37PM 41.0327 -74.9767 114° Southeast 426 490 23,000  Level FlightAware ADS-B
11:37PM 41.0079 -74.9041 114° Southeast 424 488 23,000  Level FlightAware ADS-B
11:38PM 40.9980 -74.8712 112° Southeast 426 490 23,000  Level FlightAware ADS-B
11:38PM 40.9938 -74.8501 105° East 429 494 23,000  Level FlightAware ADS-B
11:38PM 40.9852 -74.7704 98° East 433 498 23,000  Level FlightAware ADS-B
11:39PM 40.9789 -74.7110 98° East 434 499 23,000  Level FlightAware ADS-B
11:39PM 40.9767 -74.6909 98° East 435 501 23,000 -780 Level FlightAware ADS-B
11:39PM 40.9705 -74.6335 98° East 434 499 22,600 -1,020 Descending FlightAware ADS-B
11:39PM 40.9679 -74.6097 98° East 432 497 22,500 -840 Descending FlightAware ADS-B
11:40PM 40.9593 -74.5311 98° East 433 498 22,100 -1,020 Descending FlightAware ADS-B
11:40PM 40.9505 -74.4522 98° East 430 495 21,500 -1,320 Descending FlightAware ADS-B
11:41PM 40.9418 -74.3743 98° East 426 490 20,800 -1,620 Descending FlightAware ADS-B
11:41PM 40.9332 -74.2980 98° East 420 483 19,900 -1,800 Descending FlightAware ADS-B
11:41PM 40.9301 -74.2795 102° East 415 478 19,700 -1,740 Descending FlightAware ADS-B
11:42PM 40.9260 -74.2621 107° East 410 472 19,500 -1,620 Descending FlightAware ADS-B
11:42PM 40.9039 -74.1934 113° Southeast 402 463 18,700 -2,460 Descending FlightAware ADS-B
11:43PM 40.8809 -74.1239 114° Southeast 414 476 17,000 -3,360 Descending FlightAware ADS-B
11:43PM 40.8639 -74.0728 114° Southeast 414 476 15,800 -3,420 Descending FlightAware ADS-B
11:43PM 40.8577 -74.0544 114° Southeast 419 482 15,300 -3,000 Descending FlightAware ADS-B
11:44PM 40.8375 -73.9940 114° Southeast 419 482 14,100 -3,000 Descending FlightAware ADS-B
11:44PM 40.8345 -73.9854 115° Southeast 419 482 13,800 -2,340 Descending FlightAware ADS-B
11:44PM 40.8099 -73.9140 114° Southeast 405 466 12,800 -1,020 Descending FlightAware ADS-B
11:45PM 40.7875 -73.8486 114° Southeast 367 422 12,800  Level FlightAware ADS-B
11:45PM 40.7785 -73.8229 115° Southeast 350 403 12,800  Level FlightAware ADS-B
11:45PM 40.7756 -73.8162 120° Southeast 345 397 12,800 -900 Level FlightAware ADS-B
11:45PM 40.7739 -73.8128 123° Southeast 342 394 12,700 -1,020 Descending FlightAware ADS-B
11:45PM 40.7703 -73.8065 127° Southeast 337 388 12,700  Level FlightAware ADS-B
11:45PM 40.7688 -73.8043 132° Southeast 336 387 12,700 -1,500 Level FlightAware ADS-B
11:45PM 40.7661 -73.8005 133° Southeast 332 382 12,600 -1,500 Descending FlightAware ADS-B
11:45PM 40.7645 -73.7985 137° Southeast 331 381 12,600 -1,200 Level FlightAware ADS-B
11:45PM 40.7596 -73.7933 141° Southeast 326 375 12,500 -720 Descending FlightAware ADS-B
11:45PM 40.7538 -73.7884 147° Southeast 320 368 12,500 -720 Level FlightAware ADS-B
11:45PM 40.7488 -73.7851 153° Southeast 314 361 12,400 -1,980 Descending FlightAware ADS-B
11:46PM 40.7084 -73.7670 161° South 298 343 11,400 -2,220 Descending FlightAware ADS-B
11:46PM 40.6653 -73.7496 163° South 298 343 10,100 -2,340 Descending FlightAware ADS-B
11:47PM 40.6335 -73.7369 163° South 294 338 9,200 -2,280 Descending FlightAware ADS-B
11:47PM 40.6134 -73.7288 163° South 290 334 8,600 -2,400 Descending FlightAware ADS-B
11:47PM 40.6042 -73.7248 162° South 290 334 8,300 -2,220 Descending FlightAware ADS-B
11:47PM 40.5994 -73.7220 156° South 292 336 8,200 -2,280 Descending FlightAware ADS-B
11:47PM 40.5949 -73.7186 150° Southeast 295 339 8,000 -2,700 Descending FlightAware ADS-B
11:47PM 40.5906 -73.7144 143° Southeast 297 342 7,800 -2,040 Descending FlightAware ADS-B
11:47PM 40.5858 -73.7083 136° Southeast 298 343 7,700 -2,280 Descending FlightAware ADS-B
11:47PM 40.5818 -73.7017 129° Southeast 300 345 7,500 -2,700 Descending FlightAware ADS-B
11:48PM 40.5782 -73.6939 121° Southeast 302 348 7,300 -2,700 Descending FlightAware ADS-B
11:48PM 40.5759 -73.6866 113° Southeast 303 349 7,100 -2,400 Descending FlightAware ADS-B
11:48PM 40.5737 -73.6764 106° East 305 351 6,900 -2,040 Descending FlightAware ADS-B
11:48PM 40.5728 -73.6662 97° East 307 353 6,700 -2,520 Descending FlightAware ADS-B
11:48PM 40.5734 -73.6538 86° East 309 356 6,400 -2,400 Descending FlightAware ADS-B
11:48PM 40.5744 -73.6463 80° East 309 356 6,300 -1,500 Descending FlightAware ADS-B
11:48PM 40.5791 -73.6181 78° East 309 356 5,900 -1,020 Descending FlightAware ADS-B
11:49PM 40.5841 -73.5903 77° East 307 353 5,800 -240 Descending FlightAware ADS-B
11:49PM 40.5890 -73.5639 76° East 307 353 5,800  Level FlightAware ADS-B
11:49PM 40.5912 -73.5560 70° East 307 353 5,800  Level FlightAware ADS-B
11:49PM 40.5931 -73.5506 65° Northeast 306 352 5,800 -600 Level FlightAware ADS-B
11:49PM 40.5984 -73.5401 56° Northeast 303 349 5,700 -1,140 Descending FlightAware ADS-B
11:49PM 40.6019 -73.5349 48° Northeast 302 348 5,600 -1,140 Descending FlightAware ADS-B
11:49PM 40.6094 -73.5267 40° Northeast 297 342 5,500 -1,500 Descending FlightAware ADS-B
11:49PM 40.6308 -73.5165 20° North 296 341 5,000 -1,680 Descending FlightAware ADS-B
11:50PM 40.6375 -73.5164 North 281 323 4,900 -1,200 Descending FlightAware ADS-B
11:50PM 40.6438 -73.5171 355° North 279 321 4,800 -1,320 Descending FlightAware ADS-B
11:50PM 40.7010 -73.5290 351° North 263 303 3,800 -840 Descending FlightAware
11:51PM 40.7330 -73.5350 352° North 236 272 3,800  Level FlightAware
11:51PM 40.7610 -73.5430 348° North 218 251 3,800 -420 Level FlightAware
11:52PM 40.7730 -73.5560 321° Northwest 207 238 3,500 -1,320 Descending FlightAware
11:52PM 40.7790 -73.5710 298° West 204 235 3,200 -1,380 Descending FlightAware
11:52PM 40.7870 -73.5910 298° West 200 230 2,800 -1,380 Descending FlightAware
11:52PM 40.7880 -73.6000 278° West 197 227 2,600 -1,260 Descending FlightAware
11:53PM 40.7820 -73.6220 250° West 199 229 2,200 -1,140 Descending FlightAware
11:53PM 40.7720 -73.6400 234° Southwest 199 229 1,900 -600 Descending FlightAware
11:53PM 40.7570 -73.6650 232° Southwest 184 212 1,800  Descending FlightAware
11:54PM 40.7410 -73.6790 214° Southwest 165 190 1,900 -360 Climbing FlightAware
11:54PM 40.7220 -73.6950 213° Southwest 160 184 1,500 -840 Descending FlightAware
11:55PM 40.7030 -73.7090 209° Southwest 134 154 1,100 -780 Descending FlightAware
11:55PM 40.6890 -73.7200 211° Southwest 129 148 800 -660 Descending FlightAware
11:56PM 40.6750 -73.7320 213° Southwest 134 154 500 -660 Descending FlightAware
11:56PM 40.6600 -73.7430 209° Southwest 134 154 200 -660 Descending FlightAware
11:56PM 40.6530 -73.7490 213° Southwest 134 154 -1,020 Descending FlightAware
11:57PM 40.6390 -73.7600 211° Southwest 115 132  Level FlightAware
11:57PM 40.6320 -73.7650 208° Southwest 47 54  Level FlightAware
11:57PM 40.6300 -73.7670 217° Southwest 26 30  Level FlightAware
11:58PM 40.6300 -73.7680 270° West 20 23  Level FlightAware
11:58PM 40.6290 -73.7690 217° Southwest 30 35  Level FlightAware
11:58PM 40.6300 -73.7710 303° West 16 18  Level FlightAware
11:59PM 40.6310 -73.7730 303° West 18 21  Level FlightAware
11:59PM 40.6320 -73.7750 303° West 17 20  Level FlightAware
11:59PM 40.6330 -73.7780 294° West 16 18  Level FlightAware
12:00AM 40.6350 -73.7770 21° North 30 35  Level FlightAware
12:01AM 40.6360 -73.7760 37° Northeast 30 35  Level FlightAware
12:01AM 40.6370 -73.7770 323° Northwest 21 24  Level FlightAware
12:01AM 40.6380 -73.7770 360° North 19 22  Level FlightAware
12:02AM 40.6380 -73.7780 270° West 16 18  Level FlightAware
12:05AM 40.6398 -73.7789 270° West  Level Estimated
12:06AM 40.6398 -73.7789 282° West  Level Estimated
12:07AM 40.6398 -73.7789 282° West  Level Estimated
12:08AM 40.6398 -73.7789 282° West  Level Estimated